Terminal Aerodrome Forecast
Issued by NWS

Home | Current Version | Previous Version | Text Only | Print | Product List | Glossary On
Versions: 1 2 3 4 5 6 7 8 9 10 11 12 13 14 15 16
000
FTAK31 PAJN 030500
TAFAJN
TAF
PAJN 030520Z 0306/0406 07007KT P6SM VCSH FEW015 BKN035 OVC060
     FM031000 VRB04KT P6SM VCFG FEW005 BKN025 OVC050
     FM032100 25006KT P6SM BKN035 OVC050=

USA.gov is the U.S. government's official web portal to all federal, state and local government web resources and services.